Time;durP1;ratioP1;P1;durP2;ratioP2;P2;SDS_P1;SDS_P2;PMS_P1;PMS_P2;Temp;Humidity;BMP_temperature;BMP_pressure;BME280_temperature;BME280_humidity;BME280_pressure;Samples;Min_cycle;Max_cycle;Signal;HPM_P1;HPM_P2
2021/04/04 00:01:31;;;;;;;6.50;2.20;;;18.20;49.80;;;;;;6214581;23;20008;-81
2021/04/04 00:03:57;;;;;;;7.55;2.38;;;18.20;49.90;;;;;;6214929;23;20075;-82
2021/04/04 00:06:22;;;;;;;9.10;3.10;;;18.10;49.50;;;;;;6215023;23;20051;-80
2021/04/04 00:08:48;;;;;;;5.88;2.58;;;18.10;49.80;;;;;;6214747;23;20000;-78
2021/04/04 00:11:14;;;;;;;7.25;2.13;;;18.10;49.80;;;;;;6214378;23;20011;-79
2021/04/04 00:13:40;;;;;;;6.60;2.35;;;18.10;50.60;;;;;;6214777;23;20000;-81
2021/04/04 00:16:06;;;;;;;6.38;1.98;;;18.10;50.00;;;;;;6214634;23;20426;-77
2021/04/04 00:18:33;;;;;;;10.65;2.53;;;18.00;50.10;;;;;;6214759;23;20207;-79
2021/04/04 00:20:59;;;;;;;6.88;2.45;;;18.00;49.90;;;;;;6214539;23;20005;-77
2021/04/04 00:23:24;;;;;;;10.60;2.90;;;18.00;49.90;;;;;;6214933;23;20020;-76
2021/04/04 00:25:50;;;;;;;6.65;2.60;;;18.00;50.00;;;;;;6213764;23;20004;-78
2021/04/04 00:28:16;;;;;;;6.78;2.22;;;17.90;50.40;;;;;;6214510;23;20001;-79
2021/04/04 00:30:41;;;;;;;7.95;2.80;;;17.90;50.40;;;;;;6214585;23;19996;-79
2021/04/04 00:33:07;;;;;;;5.22;1.92;;;17.90;50.10;;;;;;6214297;23;20005;-80
2021/04/04 00:35:33;;;;;;;7.68;2.90;;;17.90;50.30;;;;;;6214399;23;20076;-81
2021/04/04 00:38:01;;;;;;;7.15;2.40;;;17.90;49.80;;;;;;6214624;23;20408;-83
2021/04/04 00:40:29;;;;;;;5.82;2.40;;;17.80;49.70;;;;;;6214476;23;20001;-77
2021/04/04 00:42:56;;;;;;;5.13;1.90;;;17.80;50.00;;;;;;6214911;23;20054;-77
2021/04/04 00:45:24;;;;;;;6.72;2.20;;;17.80;49.80;;;;;;6214557;23;19997;-74
2021/04/04 00:47:50;;;;;;;6.35;2.42;;;17.80;49.90;;;;;;6214310;23;20004;-78
2021/04/04 00:50:18;;;;;;;5.78;2.25;;;17.80;50.00;;;;;;6214403;23;20000;-79
2021/04/04 00:52:45;;;;;;;8.02;2.08;;;17.70;50.20;;;;;;6214162;23;20345;-76
2021/04/04 00:55:12;;;;;;;6.90;2.88;;;17.70;50.20;;;;;;6214118;23;20371;-75
2021/04/04 00:57:40;;;;;;;6.93;2.17;;;17.70;50.00;;;;;;6187564;23;20023;-80
2021/04/04 01:00:11;;;;;;;8.15;2.47;;;17.70;50.20;;;;;;6214237;23;20446;-77
2021/04/04 01:02:37;;;;;;;8.05;2.65;;;17.70;50.30;;;;;;6213845;23;20032;-76
2021/04/04 01:05:05;;;;;;;6.07;1.92;;;17.70;50.30;;;;;;6214062;23;20050;-75
2021/04/04 01:07:33;;;;;;;6.72;2.72;;;17.70;50.50;;;;;;6214049;23;19997;-79
2021/04/04 01:09:59;;;;;;;5.05;2.05;;;17.60;50.60;;;;;;6214708;23;20055;-78
2021/04/04 01:12:31;;;;;;;6.18;2.45;;;17.60;50.00;;;;;;6214061;23;20000;-76
2021/04/04 01:15:07;;;;;;;7.72;2.63;;;17.60;50.70;;;;;;6214546;23;20011;-78
2021/04/04 01:17:36;;;;;;;7.15;2.60;;;17.60;50.70;;;;;;6213739;23;20016;-78
2021/04/04 01:20:31;;;;;;;5.57;2.08;;;17.50;50.70;;;;;;6186821;23;20000;-78
2021/04/04 01:23:15;;;;;;;8.10;2.60;;;17.50;50.70;;;;;;6187489;23;20043;-77
2021/04/04 01:26:02;;;;;;;5.57;2.00;;;17.50;50.70;;;;;;6213880;23;20059;-76
2021/04/04 01:28:31;;;;;;;7.53;2.63;;;17.40;50.60;;;;;;6214302;23;20016;-77
2021/04/04 01:30:58;;;;;;;7.85;2.33;;;17.40;49.70;;;;;;6214188;23;20004;-78
2021/04/04 01:33:25;;;;;;;5.93;2.20;;;17.40;50.40;;;;;;6213837;23;20369;-77
2021/04/04 01:35:56;;;;;;;5.28;1.98;;;17.40;50.30;;;;;;6213977;23;20066;-78
2021/04/04 01:38:26;;;;;;;8.43;2.65;;;17.40;51.10;;;;;;6214160;23;20365;-76
2021/04/04 01:41:11;;;;;;;5.35;2.15;;;17.40;50.40;;;;;;6213699;23;20520;-79
2021/04/04 01:43:40;;;;;;;6.75;2.60;;;17.40;50.20;;;;;;6187321;23;20345;-78
2021/04/04 01:46:06;;;;;;;5.53;1.75;;;17.30;49.50;;;;;;6213671;23;20417;-80
2021/04/04 01:48:34;;;;;;;5.22;1.88;;;17.30;49.90;;;;;;6214101;23;20035;-78
2021/04/04 01:51:01;;;;;;;7.57;2.20;;;17.30;50.30;;;;;;6163010;23;20008;-78
2021/04/04 01:53:28;;;;;;;6.78;2.30;;;17.20;50.10;;;;;;6213850;23;20487;-75
2021/04/04 01:55:54;;;;;;;6.00;2.45;;;17.30;50.60;;;;;;6213150;23;20012;-78
2021/04/04 01:58:21;;;;;;;6.65;2.42;;;17.30;50.50;;;;;;6186890;23;20012;-80
2021/04/04 02:00:47;;;;;;;5.53;2.65;;;17.20;50.40;;;;;;6213478;23;20007;-79
2021/04/04 02:03:14;;;;;;;7.35;2.42;;;17.20;50.60;;;;;;6213255;23;20004;-75
2021/04/04 02:05:41;;;;;;;5.32;2.20;;;17.20;50.60;;;;;;6213642;23;20008;-80
2021/04/04 02:08:08;;;;;;;8.80;2.63;;;17.20;50.00;;;;;;6213653;23;19996;-79
2021/04/04 02:10:37;;;;;;;7.13;2.15;;;17.20;50.40;;;;;;6187384;23;20005;-80
2021/04/04 02:13:04;;;;;;;7.00;2.47;;;17.10;50.10;;;;;;6213975;23;20034;-76
2021/04/04 02:15:32;;;;;;;5.60;2.15;;;17.10;50.20;;;;;;6213902;23;20009;-80
2021/04/04 02:17:59;;;;;;;7.13;2.63;;;17.10;50.30;;;;;;6213762;23;20059;-80
2021/04/04 02:20:27;;;;;;;4.40;1.95;;;17.10;50.30;;;;;;6186799;23;20015;-80
2021/04/04 02:22:57;;;;;;;6.80;2.17;;;17.10;50.40;;;;;;6213546;23;20011;-79
2021/04/04 02:25:23;;;;;;;4.80;1.85;;;17.10;50.50;;;;;;6213723;23;20043;-78
2021/04/04 02:27:48;;;;;;;7.25;2.40;;;17.10;50.00;;;;;;6213447;23;20327;-77
2021/04/04 02:30:16;;;;;;;5.32;1.95;;;17.00;50.30;;;;;;6214655;23;20314;-80
2021/04/04 02:32:57;;;;;;;6.10;2.20;;;17.00;49.80;;;;;;6215076;23;20501;-80
2021/04/04 02:35:34;;;;;;;5.72;2.03;;;17.00;49.00;;;;;;6215725;23;20032;-79
2021/04/04 02:38:06;;;;;;;6.03;1.98;;;17.00;49.20;;;;;;6215519;23;20389;-79
2021/04/04 02:40:32;;;;;;;5.60;1.95;;;17.00;49.00;;;;;;6215985;23;20061;-79
2021/04/04 02:43:00;;;;;;;7.30;2.10;;;16.90;50.00;;;;;;6215446;23;20027;-79
2021/04/04 02:45:28;;;;;;;5.60;1.80;;;16.90;48.90;;;;;;6215512;23;20866;-78
2021/04/04 02:48:09;;;;;;;5.90;2.55;;;16.90;49.30;;;;;;6215336;23;20425;-78
2021/04/04 02:50:36;;;;;;;4.82;1.67;;;16.90;49.50;;;;;;6215740;23;20001;-76
2021/04/04 02:53:04;;;;;;;5.32;1.73;;;16.90;49.10;;;;;;6215771;23;20185;-81
2021/04/04 02:55:33;;;;;;;5.32;2.38;;;16.90;49.60;;;;;;6215274;23;20004;-80
2021/04/04 02:58:02;;;;;;;6.20;2.47;;;16.80;49.70;;;;;;6214900;23;20009;-80
2021/04/04 03:00:28;;;;;;;5.63;1.92;;;16.90;49.70;;;;;;6215038;23;20433;-80
2021/04/04 03:02:55;;;;;;;6.07;2.13;;;16.80;49.50;;;;;;6215194;23;20008;-79
2021/04/04 03:05:26;;;;;;;7.30;2.55;;;16.80;49.60;;;;;;6215735;23;20028;-78
2021/04/04 03:07:53;;;;;;;5.70;2.67;;;16.80;49.70;;;;;;6215285;23;20001;-80
2021/04/04 03:10:18;;;;;;;6.50;2.38;;;16.80;49.90;;;;;;6215258;23;20000;-78
2021/04/04 03:12:47;;;;;;;4.20;2.15;;;16.80;49.70;;;;;;6215275;23;20500;-78
2021/04/04 03:15:15;;;;;;;4.75;2.40;;;16.80;49.70;;;;;;6215159;23;20434;-81
2021/04/04 03:17:43;;;;;;;6.18;2.35;;;16.80;49.60;;;;;;6215162;23;20016;-80
2021/04/04 03:20:14;;;;;;;4.53;1.70;;;16.70;49.60;;;;;;6215239;23;20003;-80
2021/04/04 03:22:43;;;;;;;5.10;2.00;;;16.70;49.30;;;;;;6215333;23;20382;-79
2021/04/04 03:25:10;;;;;;;4.78;2.20;;;16.70;48.80;;;;;;6215371;23;19997;-80
2021/04/04 03:27:37;;;;;;;5.80;2.17;;;16.70;49.10;;;;;;6215550;23;20441;-83
2021/04/04 03:30:08;;;;;;;6.35;2.17;;;16.70;48.70;;;;;;6215168;23;20499;-81
2021/04/04 03:32:36;;;;;;;5.03;2.22;;;16.70;48.80;;;;;;6215101;23;20000;-77
2021/04/04 03:35:06;;;;;;;5.68;2.30;;;16.70;48.60;;;;;;6215077;23;20028;-83
2021/04/04 03:37:32;;;;;;;7.65;2.38;;;16.70;48.80;;;;;;6214761;23;20051;-81
2021/04/04 03:39:58;;;;;;;6.22;2.13;;;16.70;48.80;;;;;;6215226;23;20059;-79
2021/04/04 03:42:26;;;;;;;9.15;2.50;;;16.70;48.60;;;;;;6214849;23;20008;-80
2021/04/04 03:44:52;;;;;;;5.80;2.05;;;16.60;48.60;;;;;;6215072;23;20001;-80
2021/04/04 03:47:19;;;;;;;5.15;2.17;;;16.60;48.70;;;;;;6214726;23;20315;-84
2021/04/04 03:49:45;;;;;;;8.27;2.17;;;16.60;48.80;;;;;;6214706;23;20418;-81
2021/04/04 03:52:12;;;;;;;7.70;2.22;;;16.60;48.60;;;;;;6214894;23;20334;-81
2021/04/04 03:54:39;;;;;;;7.47;2.28;;;16.60;48.80;;;;;;6188799;23;20079;-81
2021/04/04 03:57:07;;;;;;;6.82;2.17;;;16.60;48.80;;;;;;6215097;23;20034;-80
2021/04/04 03:59:34;;;;;;;4.47;1.80;;;16.60;48.60;;;;;;6214873;23;20032;-80
2021/04/04 04:02:01;;;;;;;5.78;1.83;;;16.60;48.80;;;;;;6214303;23;20001;-80
2021/04/04 04:04:27;;;;;;;6.55;2.60;;;16.60;48.60;;;;;;6214504;23;20031;-80
2021/04/04 04:06:54;;;;;;;6.35;2.45;;;16.60;48.60;;;;;;6214939;23;20007;-80
2021/04/04 04:09:21;;;;;;;5.00;2.00;;;16.60;48.70;;;;;;6187989;23;20005;-79
2021/04/04 04:11:48;;;;;;;5.03;2.08;;;16.60;49.20;;;;;;6214679;23;20001;-80
2021/04/04 04:14:19;;;;;;;6.35;2.30;;;16.50;48.50;;;;;;6214594;23;20028;-78
2021/04/04 04:16:45;;;;;;;4.68;2.58;;;16.50;48.60;;;;;;6214812;23;20017;-81
2021/04/04 04:19:11;;;;;;;5.55;2.30;;;16.50;48.70;;;;;;6214467;23;20027;-79
2021/04/04 04:21:39;;;;;;;4.63;1.83;;;16.50;48.70;;;;;;6215079;23;20005;-77
2021/04/04 04:24:09;;;;;;;6.03;2.42;;;16.50;48.70;;;;;;6214684;23;20039;-79
2021/04/04 04:26:37;;;;;;;7.20;2.55;;;16.50;48.70;;;;;;6214399;23;20005;-80
2021/04/04 04:29:05;;;;;;;5.45;2.75;;;16.50;48.70;;;;;;6214534;23;20432;-76
2021/04/04 04:31:37;;;;;;;7.53;2.72;;;16.50;48.70;;;;;;6214619;23;20009;-80
2021/04/04 04:34:07;;;;;;;7.97;2.90;;;16.50;48.70;;;;;;6214393;23;20024;-82
2021/04/04 04:36:33;;;;;;;6.78;2.35;;;16.40;48.60;;;;;;6214490;23;20026;-79
2021/04/04 04:39:01;;;;;;;5.50;2.28;;;16.50;48.70;;;;;;6214647;23;20008;-75
2021/04/04 04:41:30;;;;;;;5.53;2.30;;;16.50;48.70;;;;;;6214103;23;20005;-76
2021/04/04 04:44:03;;;;;;;4.97;2.38;;;16.40;48.60;;;;;;6214301;23;20429;-81
2021/04/04 04:46:30;;;;;;;5.55;2.20;;;16.40;48.60;;;;;;6214590;23;20001;-82
2021/04/04 04:48:56;;;;;;;5.72;2.45;;;16.40;48.70;;;;;;6214265;23;20011;-81
2021/04/04 04:51:23;;;;;;;4.15;2.17;;;16.40;48.70;;;;;;6214301;23;20001;-78
2021/04/04 04:53:49;;;;;;;6.45;2.53;;;16.40;48.60;;;;;;6213854;23;20008;-81
2021/04/04 04:56:16;;;;;;;7.03;2.47;;;16.40;48.60;;;;;;6187581;23;20412;-81
2021/04/04 04:58:43;;;;;;;6.65;2.47;;;16.40;48.60;;;;;;6214172;23;20341;-81
2021/04/04 05:01:12;;;;;;;5.95;2.72;;;16.40;48.60;;;;;;6214472;23;20428;-81
2021/04/04 05:03:38;;;;;;;6.70;2.72;;;16.40;48.70;;;;;;6187926;23;20005;-82
2021/04/04 05:06:12;;;;;;;6.43;2.35;;;16.40;48.60;;;;;;6214378;23;20465;-80
2021/04/04 05:08:42;;;;;;;4.43;2.22;;;16.40;48.70;;;;;;6214189;23;20000;-82
2021/04/04 05:11:10;;;;;;;5.75;2.25;;;16.40;48.60;;;;;;6214421;23;20000;-82
2021/04/04 05:13:38;;;;;;;5.18;2.33;;;16.40;48.70;;;;;;6214307;23;20008;-82
2021/04/04 05:16:15;;;;;;;7.78;2.40;;;16.40;48.70;;;;;;6213759;23;20005;-82
2021/04/04 05:18:48;;;;;;;5.05;2.10;;;16.40;48.60;;;;;;6214699;23;20429;-82
2021/04/04 05:21:24;;;;;;;9.15;2.08;;;16.30;48.60;;;;;;6213902;23;20028;-80
2021/04/04 05:23:57;;;;;;;6.80;2.50;;;16.30;48.60;;;;;;6214017;23;20008;-80
2021/04/04 05:26:25;;;;;;;5.38;2.38;;;16.30;48.60;;;;;;6214169;23;20004;-82
2021/04/04 05:28:53;;;;;;;5.88;2.00;;;16.30;48.60;;;;;;6213993;23;20001;-80
2021/04/04 05:31:22;;;;;;;5.25;2.22;;;16.30;48.60;;;;;;6213761;23;20429;-80
2021/04/04 05:33:47;;;;;;;8.38;2.50;;;16.30;48.60;;;;;;6213927;23;20080;-79
2021/04/04 05:36:13;;;;;;;6.05;2.22;;;16.30;48.70;;;;;;6213966;23;20044;-81
2021/04/04 05:38:39;;;;;;;4.35;1.83;;;16.30;48.60;;;;;;6187448;23;20017;-81
2021/04/04 05:41:06;;;;;;;8.43;2.75;;;16.30;48.60;;;;;;6213977;23;20004;-79
2021/04/04 05:43:41;;;;;;;6.82;2.10;;;16.30;48.60;;;;;;6213708;23;20034;-81
2021/04/04 05:46:15;;;;;;;7.72;2.20;;;16.30;48.60;;;;;;6186820;23;20338;-80
2021/04/04 05:48:41;;;;;;;4.05;2.03;;;16.30;48.60;;;;;;6214241;23;20009;-78
2021/04/04 05:51:14;;;;;;;5.07;1.75;;;16.30;48.60;;;;;;6213495;23;20001;-79
2021/04/04 05:53:58;;;;;;;6.65;2.22;;;16.30;48.70;;;;;;6214276;23;20008;-79
2021/04/04 05:56:35;;;;;;;5.72;2.10;;;16.30;48.60;;;;;;6213623;23;20019;-82
2021/04/04 05:59:08;;;;;;;4.63;1.98;;;16.30;48.60;;;;;;6186876;23;20080;-79
2021/04/04 06:01:35;;;;;;;5.93;2.03;;;16.20;48.60;;;;;;6213955;23;20032;-78
2021/04/04 06:04:21;;;;;;;4.43;2.08;;;16.30;48.70;;;;;;6186685;23;20001;-82
2021/04/04 06:07:04;;;;;;;6.37;1.93;;;16.30;48.70;;;;;;6213739;23;20082;-81
2021/04/04 06:09:56;;;;;;;4.20;1.92;;;16.20;48.60;;;;;;6186703;23;20005;-80
2021/04/04 06:12:46;;;;;;;5.13;2.17;;;16.20;48.60;;;;;;6213769;23;20346;-80
2021/04/04 06:15:38;;;;;;;5.93;2.13;;;16.20;48.60;;;;;;6187148;23;20011;-80
2021/04/04 06:18:12;;;;;;;8.40;2.15;;;16.20;48.60;;;;;;6213669;23;20012;-79
2021/04/04 06:21:07;;;;;;;8.00;3.05;;;16.20;48.70;;;;;;6212586;23;20008;-78
2021/04/04 06:23:48;;;;;;;4.63;1.70;;;16.20;48.80;;;;;;6213241;23;20035;-81
2021/04/04 06:26:29;;;;;;;5.13;2.10;;;16.20;48.80;;;;;;6213625;23;20001;-78
2021/04/04 06:29:10;;;;;;;7.28;2.33;;;16.20;48.80;;;;;;6212814;23;20479;-75
2021/04/04 06:32:10;;;;;;;7.22;2.35;;;16.20;48.80;;;;;;6213282;23;19997;-76
2021/04/04 06:34:36;;;;;;;6.40;1.80;;;16.20;48.90;;;;;;6213383;23;20005;-76
2021/04/04 06:37:32;;;;;;;7.38;2.42;;;16.20;49.10;;;;;;6213215;23;20021;-76
2021/04/04 06:40:09;;;;;;;4.97;1.95;;;16.20;49.10;;;;;;6213601;23;20003;-76
2021/04/04 06:42:58;;;;;;;7.63;2.58;;;16.20;49.20;;;;;;6213287;23;20004;-77
2021/04/04 06:45:43;;;;;;;3.60;1.98;;;16.20;49.30;;;;;;6213599;23;20027;-76
2021/04/04 06:48:18;;;;;;;6.97;2.30;;;16.20;49.50;;;;;;6213358;23;20333;-75
2021/04/04 06:50:48;;;;;;;5.15;2.50;;;16.30;50.20;;;;;;6213946;23;20005;-76
2021/04/04 06:53:39;;;;;;;7.07;2.50;;;16.30;49.70;;;;;;6213379;23;20076;-77
2021/04/04 06:56:42;;;;;;;5.88;1.48;;;16.40;49.80;;;;;;6213414;23;20080;-76
2021/04/04 06:59:21;;;;;;;5.35;1.98;;;16.60;49.90;;;;;;6147145;23;20375;-77
2021/04/04 07:02:00;;;;;;;6.22;2.10;;;16.70;50.10;;;;;;6213397;23;20008;-76
2021/04/04 07:04:31;;;;;;;5.13;1.92;;;16.70;50.20;;;;;;6213482;23;19997;-76
2021/04/04 07:07:24;;;;;;;4.72;1.45;;;16.80;50.30;;;;;;6213012;23;20015;-75
2021/04/04 07:10:19;;;;;;;8.60;1.80;;;16.90;50.30;;;;;;6212980;23;20008;-82
2021/04/04 07:13:19;;;;;;;5.22;2.10;;;17.00;51.30;;;;;;6214126;23;19996;-74
2021/04/04 07:16:21;;;;;;;7.97;2.05;;;17.10;50.60;;;;;;6213582;23;20001;-73
2021/04/04 07:19:15;;;;;;;5.75;1.77;;;17.20;50.60;;;;;;6215786;23;20008;-75
2021/04/04 07:22:04;;;;;;;14.88;7.57;;;17.30;50.80;;;;;;6215255;23;20005;-74
2021/04/04 07:24:42;;;;;;;16.23;9.95;;;17.40;49.90;;;;;;6214827;23;20000;-76
2021/04/04 07:27:17;;;;;;;13.45;7.10;;;17.40;51.20;;;;;;6215401;23;20425;-75
2021/04/04 07:29:56;;;;;;;13.10;6.60;;;17.50;50.40;;;;;;6214980;23;20024;-75
2021/04/04 07:32:46;;;;;;;11.75;5.22;;;17.60;50.20;;;;;;6214828;23;20492;-74
2021/04/04 07:35:28;;;;;;;12.38;4.85;;;17.60;50.40;;;;;;6215204;23;20001;-73
2021/04/04 07:38:00;;;;;;;8.65;3.92;;;17.70;50.00;;;;;;6214804;23;20016;-74
2021/04/04 07:40:36;;;;;;;9.48;3.72;;;17.80;49.70;;;;;;6215101;23;19997;-74
2021/04/04 07:43:11;;;;;;;15.38;3.40;;;17.80;49.20;;;;;;6214851;23;20032;-74
2021/04/04 07:46:06;;;;;;;9.25;3.67;;;17.80;48.50;;;;;;6215017;23;19997;-73
2021/04/04 07:48:48;;;;;;;7.60;3.03;;;17.80;48.50;;;;;;6193611;23;20514;-75
2021/04/04 07:51:20;;;;;;;9.77;2.95;;;17.90;49.10;;;;;;6214836;23;20016;-75
2021/04/04 07:54:07;;;;;;;8.35;3.53;;;18.00;49.10;;;;;;6214445;23;20001;-74
2021/04/04 07:56:50;;;;;;;;;;;18.00;48.80;;;;;;6215176;23;20353;-73
2021/04/04 07:59:47;;;;;;;6.90;2.33;;;18.20;49.00;;;;;;6214662;23;20349;-74
2021/04/04 08:02:24;;;;;;;6.53;1.98;;;18.30;49.40;;;;;;6190181;23;20019;-74
2021/04/04 08:04:57;;;;;;;7.82;2.30;;;18.30;49.60;;;;;;6215320;23;20001;-73
2021/04/04 08:07:47;;;;;;;13.27;2.67;;;18.40;49.00;;;;;;6215368;23;20011;-76
2021/04/04 08:10:31;;;;;;;9.15;2.30;;;18.50;49.20;;;;;;6214654;23;20005;-77
2021/04/04 08:13:29;;;;;;;9.68;2.42;;;18.50;49.00;;;;;;6187954;23;20008;-78
2021/04/04 08:16:32;;;;;;;7.05;2.17;;;18.60;48.90;;;;;;6214677;23;20004;-75
2021/04/04 08:18:58;;;;;;;5.72;1.95;;;18.60;48.90;;;;;;6214438;23;20013;-73
2021/04/04 08:21:46;;;;;;;9.38;2.28;;;18.60;48.80;;;;;;6214733;23;20445;-72
2021/04/04 08:24:45;;;;;;;8.38;2.22;;;18.70;49.00;;;;;;6187901;23;20024;-77
2021/04/04 08:27:25;;;;;;;9.63;3.08;;;18.70;49.40;;;;;;6124656;23;20008;-77
2021/04/04 08:30:17;;;;;;;9.48;2.80;;;18.70;49.50;;;;;;6188195;23;20390;-78
2021/04/04 08:32:47;;;;;;;9.05;2.42;;;18.70;49.50;;;;;;6188083;23;20050;-77
2021/04/04 08:35:33;;;;;;;7.70;2.42;;;18.70;49.30;;;;;;6187835;23;20059;-78
2021/04/04 08:38:13;;;;;;;8.18;2.45;;;18.80;49.40;;;;;;6213930;23;20456;-79
2021/04/04 08:40:40;;;;;;;4.72;2.00;;;18.80;49.50;;;;;;6214460;23;20000;-79
2021/04/04 08:43:07;;;;;;;5.68;1.95;;;18.80;49.40;;;;;;6214281;23;20004;-76
2021/04/04 08:45:52;;;;;;;7.93;3.03;;;18.80;49.30;;;;;;6213938;23;20004;-76
2021/04/04 08:48:19;;;;;;;7.32;1.98;;;18.90;49.20;;;;;;6214504;23;20027;-81
2021/04/04 08:50:46;;;;;;;5.72;1.75;;;18.90;49.50;;;;;;6213542;23;20456;-80
2021/04/04 08:53:12;;;;;;;8.45;2.45;;;18.90;49.30;;;;;;6213469;23;20364;-81
2021/04/04 08:55:39;;;;;;;7.90;2.03;;;19.00;49.30;;;;;;6213702;23;20003;-79
2021/04/04 08:58:06;;;;;;;6.90;2.08;;;19.00;49.20;;;;;;6213840;23;20084;-80
2021/04/04 09:00:35;;;;;;;6.13;1.98;;;19.00;49.10;;;;;;6214294;23;20001;-77
2021/04/04 09:03:21;;;;;;;8.52;2.20;;;19.10;49.20;;;;;;6214258;23;20012;-80
2021/04/04 09:05:48;;;;;;;6.80;2.00;;;19.10;49.10;;;;;;6214297;23;20379;-81
2021/04/04 09:08:15;;;;;;;6.45;2.10;;;19.20;49.10;;;;;;6214225;23;20009;-80
2021/04/04 09:10:42;;;;;;;7.82;1.80;;;19.20;49.00;;;;;;6213961;23;20444;-79
2021/04/04 09:13:10;;;;;;;7.50;1.98;;;19.20;48.90;;;;;;6214318;23;20001;-80
2021/04/04 09:15:57;;;;;;;7.78;2.17;;;19.30;48.80;;;;;;6212868;23;20326;-79
2021/04/04 09:18:25;;;;;;;9.57;2.10;;;19.20;48.70;;;;;;6214745;23;20012;-78
2021/04/04 09:21:00;;;;;;;11.23;2.22;;;19.30;48.90;;;;;;6213886;23;20031;-88
2021/04/04 09:23:27;;;;;;;8.82;1.88;;;19.40;49.00;;;;;;6214413;23;20000;-80
2021/04/04 09:25:57;;;;;;;7.97;2.05;;;19.50;49.00;;;;;;6215172;23;20449;-84
2021/04/04 09:28:28;;;;;;;10.65;1.55;;;19.50;48.90;;;;;;6215113;23;20433;-90
2021/04/04 09:30:56;;;;;;;12.00;2.05;;;19.50;48.60;;;;;;6214723;23;20341;-87
2021/04/04 09:33:30;;;;;;;11.57;2.78;;;19.50;48.50;;;;;;6213738;23;20003;-81
2021/04/04 09:35:58;;;;;;;15.60;2.03;;;19.60;48.70;;;;;;6214623;23;20004;-83
2021/04/04 09:38:37;;;;;;;14.05;1.80;;;19.70;48.70;;;;;;6214389;23;20024;-80
2021/04/04 09:41:05;;;;;;;15.82;2.78;;;19.70;48.60;;;;;;6206994;23;20388;-71
2021/04/04 09:43:45;;;;;;;18.42;2.60;;;19.80;48.60;;;;;;6212248;23;20333;-79
2021/04/04 09:46:10;;;;;;;18.33;3.63;;;19.90;48.50;;;;;;6183096;23;20520;-75
2021/04/04 09:48:43;;;;;;;17.60;3.15;;;19.90;48.30;;;;;;6186057;23;20036;-71
2021/04/04 09:51:13;;;;;;;18.27;2.38;;;20.00;48.10;;;;;;6211729;23;20000;-77
2021/04/04 09:53:44;;;;;;;14.65;2.30;;;20.00;48.00;;;;;;6212701;23;20327;-75
2021/04/04 09:56:16;;;;;;;14.38;2.60;;;20.10;47.90;;;;;;6212733;23;20030;-80
2021/04/04 09:58:42;;;;;;;12.85;2.47;;;20.10;47.90;;;;;;6212727;23;20019;-80
2021/04/04 10:01:20;;;;;;;14.90;2.65;;;20.20;48.10;;;;;;6212690;23;20080;-78
2021/04/04 10:03:55;;;;;;;12.70;3.08;;;20.20;48.00;;;;;;6213142;23;20004;-80
2021/04/04 10:06:21;;;;;;;11.43;1.98;;;20.30;48.00;;;;;;6213034;23;20010;-79
2021/04/04 10:09:04;;;;;;;12.07;2.28;;;20.40;47.90;;;;;;6212467;23;20032;-80
2021/04/04 10:11:32;;;;;;;13.43;2.20;;;20.40;47.80;;;;;;6212960;23;20441;-74
2021/04/04 10:14:11;;;;;;;11.82;2.33;;;20.50;47.60;;;;;;6213242;23;20001;-77
2021/04/04 10:16:37;;;;;;;7.68;1.80;;;20.50;47.60;;;;;;6212365;23;20040;-80
2021/04/04 10:19:11;;;;;;;8.05;1.65;;;20.60;47.50;;;;;;6185939;23;20004;-74
2021/04/04 10:21:53;;;;;;;7.68;1.67;;;20.60;47.50;;;;;;6212876;23;20031;-79
2021/04/04 10:24:35;;;;;;;6.35;1.90;;;20.70;47.50;;;;;;6212803;23;20268;-76
2021/04/04 10:27:23;;;;;;;6.70;1.75;;;20.70;47.40;;;;;;6213020;23;20004;-79
2021/04/04 10:30:03;;;;;;;10.68;1.95;;;20.70;47.30;;;;;;6213333;23;20043;-76
2021/04/04 10:32:29;;;;;;;7.07;1.30;;;20.70;47.50;;;;;;6212643;23;20008;-83
2021/04/04 10:34:54;;;;;;;6.05;2.03;;;20.80;47.70;;;;;;6213036;23;20008;-77
2021/04/04 10:37:25;;;;;;;8.93;1.95;;;20.80;47.60;;;;;;6212138;23;20024;-82
2021/04/04 10:39:58;;;;;;;7.70;1.80;;;20.80;47.90;;;;;;6212677;23;20001;-78
2021/04/04 10:42:26;;;;;;;8.77;1.50;;;20.90;47.60;;;;;;6212820;23;20344;-76
2021/04/04 10:45:16;;;;;;;6.05;1.90;;;20.90;47.60;;;;;;6212708;23;20368;-75
2021/04/04 10:47:43;;;;;;;8.95;1.80;;;21.00;47.50;;;;;;6212516;23;20004;-77
2021/04/04 10:50:14;;;;;;;8.63;1.70;;;21.00;47.50;;;;;;6211873;23;20401;-76
2021/04/04 10:52:42;;;;;;;4.75;1.30;;;21.10;47.20;;;;;;6212127;23;20001;-73
2021/04/04 10:55:09;;;;;;;4.63;1.45;;;21.10;46.90;;;;;;6214209;23;20075;-80
2021/04/04 10:57:36;;;;;;;9.73;1.63;;;21.10;46.80;;;;;;6212892;23;20013;-77
2021/04/04 11:00:06;;;;;;;4.05;1.25;;;21.20;46.70;;;;;;6213279;23;20337;-75
2021/04/04 11:02:34;;;;;;;6.25;1.30;;;21.20;46.60;;;;;;6214826;23;20005;-71
2021/04/04 11:05:01;;;;;;;6.20;1.58;;;21.30;46.50;;;;;;6214503;23;19996;-78
2021/04/04 11:07:28;;;;;;;4.10;1.35;;;21.30;47.10;;;;;;6214749;23;20074;-77
2021/04/04 11:09:55;;;;;;;5.85;1.42;;;21.40;46.90;;;;;;6214283;23;20063;-73
2021/04/04 11:12:21;;;;;;;5.55;1.90;;;21.30;46.60;;;;;;6214327;23;20012;-75
2021/04/04 11:14:48;;;;;;;7.80;1.60;;;21.30;46.80;;;;;;6214718;23;20377;-72
2021/04/04 11:17:19;;;;;;;4.47;1.33;;;21.20;46.50;;;;;;6215021;23;20008;-85
2021/04/04 11:19:48;;;;;;;4.43;1.48;;;21.20;46.60;;;;;;6215271;23;20001;-75
2021/04/04 11:22:16;;;;;;;5.75;1.63;;;21.20;46.60;;;;;;6215008;23;20083;-80
2021/04/04 11:24:58;;;;;;;7.50;1.80;;;21.20;46.70;;;;;;6214808;23;20047;-84
2021/04/04 11:27:44;;;;;;;7.05;1.77;;;21.20;46.70;;;;;;6213712;23;20001;-81
2021/04/04 11:30:15;;;;;;;7.57;1.50;;;21.20;46.70;;;;;;6214272;23;19997;-81
2021/04/04 11:32:45;;;;;;;6.55;1.25;;;21.20;46.90;;;;;;6213901;23;20345;-79
2021/04/04 11:35:13;;;;;;;7.72;1.40;;;21.20;47.00;;;;;;6214001;23;20384;-79
2021/04/04 11:37:40;;;;;;;4.00;1.70;;;21.20;46.90;;;;;;6213604;23;20017;-78
2021/04/04 11:40:25;;;;;;;5.20;1.50;;;21.30;47.00;;;;;;6213939;23;19997;-76
2021/04/04 11:43:12;;;;;;;4.78;1.50;;;21.30;47.20;;;;;;6213972;23;20004;-78
2021/04/04 11:45:39;;;;;;;7.65;1.40;;;21.30;47.20;;;;;;6213906;23;20000;-80
2021/04/04 11:48:30;;;;;;;4.53;1.67;;;21.30;47.20;;;;;;6214013;23;20352;-74
2021/04/04 11:51:16;;;;;;;5.03;1.50;;;21.30;47.00;;;;;;6214004;23;20079;-76
2021/04/04 11:53:48;;;;;;;5.25;1.50;;;21.30;47.00;;;;;;6213772;23;20477;-75
2021/04/04 11:56:46;;;;;;;7.43;1.65;;;21.30;47.00;;;;;;6186107;23;20012;-73
2021/04/04 11:59:14;;;;;;;3.25;1.42;;;21.30;46.90;;;;;;6213067;23;20068;-74
2021/04/04 12:01:39;;;;;;;6.10;1.70;;;21.30;47.10;;;;;;6185728;23;20004;-76
2021/04/04 12:04:28;;;;;;;4.53;1.52;;;21.30;47.10;;;;;;6212681;23;20027;-75
2021/04/04 12:07:17;;;;;;;6.50;1.40;;;21.30;47.20;;;;;;6212623;23;20012;-75
2021/04/04 12:09:47;;;;;;;6.10;1.77;;;21.20;47.20;;;;;;6213507;23;20054;-88
2021/04/04 12:12:14;;;;;;;3.67;1.48;;;21.30;47.20;;;;;;6213920;23;20011;-76
2021/04/04 12:14:53;;;;;;;6.15;1.30;;;21.50;47.10;;;;;;6213387;23;20005;-79
2021/04/04 12:17:27;;;;;;;3.58;1.73;;;21.40;47.00;;;;;;6213568;23;20013;-79
2021/04/04 12:19:53;;;;;;;6.07;1.55;;;21.40;47.10;;;;;;6213469;23;20020;-79
2021/04/04 12:22:31;;;;;;;8.70;1.83;;;21.40;47.20;;;;;;6213446;23;20059;-80
2021/04/04 12:24:57;;;;;;;4.60;1.67;;;21.30;47.10;;;;;;6213783;23;20005;-79
2021/04/04 12:27:25;;;;;;;6.78;1.75;;;21.30;47.30;;;;;;6213133;23;20515;-79
2021/04/04 12:29:57;;;;;;;8.68;2.28;;;21.30;47.40;;;;;;6213335;23;20001;-79
2021/04/04 12:32:27;;;;;;;5.07;1.52;;;21.30;47.40;;;;;;6212272;23;20013;-80
2021/04/04 12:34:57;;;;;;;4.93;1.90;;;21.20;47.60;;;;;;6212977;23;20488;-80
2021/04/04 12:37:25;;;;;;;5.47;2.20;;;21.30;47.50;;;;;;6212395;23;20016;-79
2021/04/04 12:39:54;;;;;;;5.88;2.10;;;21.40;47.50;;;;;;6212542;23;20079;-80
2021/04/04 12:42:25;;;;;;;5.50;1.88;;;21.40;47.80;;;;;;6212282;23;20008;-80
2021/04/04 12:44:51;;;;;;;7.72;2.30;;;21.30;47.90;;;;;;6185714;23;20533;-79
2021/04/04 12:47:22;;;;;;;4.68;1.65;;;21.30;48.10;;;;;;6212341;23;20032;-80
2021/04/04 12:50:07;;;;;;;5.35;2.30;;;21.20;48.20;;;;;;6212321;23;20003;-80
2021/04/04 12:53:04;;;;;;;6.82;1.70;;;21.20;48.40;;;;;;6212720;23;20079;-80
2021/04/04 12:55:32;;;;;;;7.15;1.60;;;21.10;48.30;;;;;;6146935;23;20401;-80
2021/04/04 12:58:09;;;;;;;5.63;1.90;;;21.10;48.10;;;;;;6213153;23;20041;-80
2021/04/04 13:00:42;;;;;;;5.40;1.85;;;21.00;48.40;;;;;;6212827;23;20460;-80
2021/04/04 13:03:10;;;;;;;8.40;1.98;;;20.90;48.30;;;;;;6212986;23;20055;-80
2021/04/04 13:05:47;;;;;;;3.78;1.55;;;20.90;48.00;;;;;;6213604;23;20004;-80
2021/04/04 13:08:13;;;;;;;4.28;1.90;;;20.90;48.30;;;;;;6212791;23;20005;-80
2021/04/04 13:10:39;;;;;;;5.35;2.00;;;20.80;48.00;;;;;;6213026;23;20075;-79
2021/04/04 13:13:43;;;;;;;5.28;2.08;;;20.80;47.90;;;;;;6211945;23;20001;-80
2021/04/04 13:16:11;;;;;;;5.13;1.88;;;20.70;47.80;;;;;;6187690;23;20008;-81